Algonquin, Illinois
Current Conditions -  °F | °C
As of 10:02 AM on Saturday 22 Nov 2014 (Local Time) from KDPA Reporting Station
Haze Haze  
Wind Chill: 34°   Ceiling: 500
Heat Index: 40°   Visibility: 2mi
Dew Point: 38°   Wind: 9mph
Humidity: 93%   Direction: 190°S
Pressure: 29.98"   Gusts: NA
Location:  42.17°N, 88.29°W
Report Text: KDPA 221602Z 19008KT 2SM BR OVC005 04/03 A2998 RMK AO2 T00440033
Loading
Personal Weather Stations






























Interactive Weather Map New forecast layout! Learn more

10-Day Weather Forecast

Advertisements
Track Severe Weather on mobile